createdAt,value
2022-10-17T00:00:58.435Z,0.22
2022-10-17T00:03:25.915Z,0.30
2022-10-17T00:05:53.367Z,0.30
2022-10-17T00:08:21.039Z,0.30
2022-10-17T00:10:56.594Z,0.32
2022-10-17T00:13:24.061Z,0.40
2022-10-17T00:15:51.526Z,0.30
2022-10-17T00:18:20.291Z,0.30
2022-10-17T00:20:47.723Z,0.40
2022-10-17T00:23:15.180Z,0.50
2022-10-17T00:25:42.727Z,0.30
2022-10-17T00:28:10.591Z,0.30
2022-10-17T00:30:38.087Z,0.30
2022-10-17T00:33:05.852Z,0.40
2022-10-17T00:35:34.905Z,0.40
2022-10-17T00:38:02.391Z,0.40
2022-10-17T00:40:30.092Z,0.40
2022-10-17T00:42:57.616Z,0.50
2022-10-17T00:45:26.395Z,0.30
2022-10-17T00:47:56.000Z,0.30
2022-10-17T00:50:24.418Z,0.45
2022-10-17T00:52:53.885Z,0.30
2022-10-17T00:55:25.390Z,0.30
2022-10-17T00:57:53.345Z,0.32
2022-10-17T01:00:21.356Z,0.32
2022-10-17T01:02:48.864Z,0.40
2022-10-17T01:05:17.786Z,0.30
2022-10-17T01:07:45.777Z,0.40
2022-10-17T01:10:14.998Z,0.40
2022-10-17T01:12:49.323Z,0.40
2022-10-17T01:15:24.741Z,0.30
2022-10-17T01:17:57.469Z,0.40
2022-10-17T01:20:40.850Z,0.40
2022-10-17T01:23:19.074Z,0.40
2022-10-17T01:25:53.459Z,0.30
2022-10-17T01:28:29.064Z,0.40
2022-10-17T01:31:10.383Z,0.30
2022-10-17T01:33:45.336Z,0.40
2022-10-17T01:36:15.450Z,0.50
2022-10-17T01:38:46.855Z,0.40
2022-10-17T01:41:16.238Z,0.30
2022-10-17T01:43:48.091Z,0.40
2022-10-17T01:46:23.114Z,0.40
2022-10-17T01:48:50.602Z,0.30
2022-10-17T01:51:19.611Z,0.30
2022-10-17T01:53:49.431Z,0.40
2022-10-17T01:56:17.524Z,0.47
2022-10-17T01:58:48.404Z,0.40
2022-10-17T02:01:16.724Z,0.30
2022-10-17T02:03:46.890Z,0.40
2022-10-17T02:06:14.356Z,0.30
2022-10-17T02:08:42.789Z,0.30
2022-10-17T02:11:13.134Z,0.30
2022-10-17T02:13:46.833Z,0.40
2022-10-17T02:16:20.329Z,0.38
2022-10-17T02:19:03.061Z,0.47
2022-10-17T02:21:33.954Z,0.40
2022-10-17T02:24:08.321Z,0.32
2022-10-17T02:26:39.161Z,0.40
2022-10-17T02:29:08.612Z,0.30
2022-10-17T02:31:39.920Z,0.38
2022-10-17T02:34:12.837Z,0.30
2022-10-17T02:36:44.261Z,0.30
2022-10-17T02:39:12.342Z,0.30
2022-10-17T02:41:41.118Z,0.40
2022-10-17T02:44:09.592Z,0.40
2022-10-17T02:46:38.334Z,0.40
2022-10-17T02:49:09.745Z,0.30
2022-10-17T02:51:43.243Z,0.40
2022-10-17T02:54:15.358Z,0.40
2022-10-17T02:56:46.142Z,0.40
2022-10-17T02:59:15.177Z,0.30
2022-10-17T03:01:44.132Z,0.30
2022-10-17T03:04:12.402Z,0.30
2022-10-17T03:06:41.642Z,0.30
2022-10-17T03:09:09.267Z,0.30
2022-10-17T03:11:37.519Z,0.35
2022-10-17T03:14:07.009Z,0.30
2022-10-17T03:16:34.509Z,0.40
2022-10-17T03:19:01.995Z,0.40
2022-10-17T03:21:29.748Z,0.40
2022-10-17T03:23:58.833Z,0.40
2022-10-17T03:26:26.291Z,0.40
2022-10-17T03:28:54.617Z,0.30
2022-10-17T03:31:23.439Z,0.30
2022-10-17T03:33:52.848Z,0.43
2022-10-17T03:36:20.604Z,0.50
2022-10-17T03:38:48.992Z,0.40
2022-10-17T03:41:19.336Z,0.35
2022-10-17T03:43:46.952Z,0.32
2022-10-17T03:46:15.126Z,0.30
2022-10-17T03:48:42.688Z,0.40
2022-10-17T03:51:10.721Z,0.32
2022-10-17T03:53:44.365Z,0.50
2022-10-17T03:56:13.226Z,0.32
2022-10-17T03:58:42.390Z,0.30
2022-10-17T04:01:11.690Z,0.30
2022-10-17T04:03:39.208Z,0.40
2022-10-17T04:06:07.178Z,0.30
2022-10-17T04:08:37.121Z,0.30
2022-10-17T04:11:14.859Z,0.40
2022-10-17T04:13:44.787Z,0.38
2022-10-17T04:16:13.672Z,0.40
2022-10-17T04:18:48.625Z,0.30
2022-10-17T04:21:16.423Z,0.40
2022-10-17T04:23:43.957Z,0.40
2022-10-17T04:26:23.339Z,0.32
2022-10-17T04:28:52.576Z,0.40
2022-10-17T04:31:20.571Z,0.40
2022-10-17T04:34:04.615Z,0.45
2022-10-17T04:36:36.044Z,0.40
2022-10-17T04:39:05.094Z,0.40
2022-10-17T04:41:33.979Z,0.40
2022-10-17T04:44:04.184Z,0.45
2022-10-17T04:46:35.423Z,0.32
2022-10-17T04:49:02.887Z,0.38
2022-10-17T04:51:31.074Z,0.40
2022-10-17T04:54:21.523Z,0.30
2022-10-17T04:56:54.576Z,0.40
2022-10-17T04:59:23.551Z,0.40
2022-10-17T05:02:05.613Z,0.40
2022-10-17T05:04:34.646Z,0.30
2022-10-17T05:07:02.466Z,0.45
2022-10-17T05:09:42.862Z,0.40
2022-10-17T05:12:11.055Z,0.47
2022-10-17T05:14:44.233Z,0.30
2022-10-17T05:17:11.879Z,0.40
2022-10-17T05:19:39.907Z,0.50
2022-10-17T05:22:08.571Z,0.40
2022-10-17T05:24:36.085Z,0.40
2022-10-17T05:27:04.459Z,0.40
2022-10-17T05:29:32.435Z,0.45
2022-10-17T05:32:11.582Z,0.30
2022-10-17T05:34:39.094Z,0.30
2022-10-17T05:37:06.559Z,0.50
2022-10-17T05:39:35.035Z,0.30
2022-10-17T05:42:04.913Z,0.40
2022-10-17T05:44:34.283Z,0.30
2022-10-17T05:47:01.857Z,0.30
2022-10-17T05:49:43.612Z,0.30
2022-10-17T05:52:14.323Z,0.32
2022-10-17T05:54:59.319Z,0.32
2022-10-17T05:57:27.895Z,0.30
2022-10-17T05:59:56.571Z,0.30
2022-10-17T06:02:24.104Z,0.40
2022-10-17T06:04:52.983Z,0.20
2022-10-17T06:07:23.323Z,0.20
2022-10-17T06:09:51.092Z,0.20
2022-10-17T06:12:18.619Z,0.30
2022-10-17T06:14:47.060Z,0.20
2022-10-17T06:17:16.531Z,0.20
2022-10-17T06:19:45.382Z,0.20
2022-10-17T06:22:40.965Z,0.30
2022-10-17T06:25:14.814Z,0.25
2022-10-17T06:27:42.710Z,0.20
2022-10-17T06:30:11.498Z,0.20
2022-10-17T06:32:38.954Z,0.20
2022-10-17T06:35:07.288Z,0.17
2022-10-17T06:37:37.640Z,0.20
2022-10-17T06:40:10.437Z,0.20
2022-10-17T06:42:38.913Z,0.30
2022-10-17T06:45:25.230Z,0.20
2022-10-17T06:48:07.066Z,0.10
2022-10-17T06:51:04.530Z,0.20
2022-10-17T06:53:39.934Z,0.25
2022-10-17T06:56:25.348Z,0.20
2022-10-17T06:59:07.357Z,0.10
2022-10-17T07:01:37.319Z,0.10
2022-10-17T07:04:05.570Z,0.10
2022-10-17T07:06:34.982Z,0.15
2022-10-17T07:09:10.470Z,0.10
2022-10-17T07:11:38.071Z,0.10
2022-10-17T07:14:05.584Z,0.00
2022-10-17T07:16:34.457Z,0.00
2022-10-17T07:19:18.017Z,0.00
2022-10-17T07:21:45.759Z,0.00
2022-10-17T07:24:15.106Z,0.00
2022-10-17T07:26:46.629Z,0.00
2022-10-17T07:29:14.249Z,0.00
2022-10-17T07:31:51.971Z,0.00
2022-10-17T07:34:19.590Z,0.00
2022-10-17T07:36:47.213Z,0.00
2022-10-17T07:39:17.596Z,0.00
2022-10-17T07:41:47.508Z,0.00
2022-10-17T07:44:15.275Z,0.00
2022-10-17T07:46:46.597Z,0.00
2022-10-17T07:49:14.182Z,0.00
2022-10-17T07:51:42.278Z,0.00
2022-10-17T07:54:09.957Z,0.00
2022-10-17T07:56:39.034Z,0.00
2022-10-17T07:59:09.193Z,0.00
2022-10-17T08:01:37.838Z,0.00
2022-10-17T08:04:05.283Z,0.00
2022-10-17T08:06:32.697Z,0.00
2022-10-17T08:09:01.530Z,0.00
2022-10-17T08:11:29.018Z,0.00
2022-10-17T08:13:57.884Z,0.00
2022-10-17T08:16:25.376Z,0.00
2022-10-17T08:18:52.844Z,0.00
2022-10-17T08:21:20.265Z,0.00
2022-10-17T08:23:47.889Z,0.00
2022-10-17T08:26:17.254Z,0.00
2022-10-17T08:28:44.802Z,0.00
2022-10-17T08:31:14.468Z,0.00
2022-10-17T08:33:42.350Z,0.00
2022-10-17T08:36:10.156Z,0.00
2022-10-17T08:38:43.098Z,0.00
2022-10-17T08:41:15.261Z,0.00
2022-10-17T08:43:58.687Z,0.00
2022-10-17T08:46:31.095Z,0.00
2022-10-17T08:49:00.913Z,0.00
2022-10-17T08:51:29.975Z,0.00
2022-10-17T08:54:00.599Z,0.00
2022-10-17T08:56:44.581Z,0.00
2022-10-17T08:59:18.691Z,0.00
2022-10-17T09:01:50.557Z,0.00
2022-10-17T09:07:06.523Z,0.00
2022-10-17T09:09:37.463Z,0.10
2022-10-17T09:12:12.582Z,0.10
2022-10-17T09:14:50.164Z,0.10
2022-10-17T09:17:23.618Z,0.10
2022-10-17T09:19:56.097Z,0.10
2022-10-17T09:22:25.210Z,0.10
2022-10-17T09:24:55.508Z,0.10
2022-10-17T09:27:25.077Z,0.10
2022-10-17T09:29:55.443Z,0.20
2022-10-17T09:32:26.028Z,0.10
2022-10-17T09:34:54.065Z,0.20
2022-10-17T09:37:25.850Z,0.17
2022-10-17T09:39:53.356Z,0.20
2022-10-17T09:42:22.344Z,0.13
2022-10-17T09:44:51.883Z,0.20
2022-10-17T09:47:23.793Z,0.17
2022-10-17T09:49:52.819Z,0.20
2022-10-17T09:52:22.550Z,0.20
2022-10-17T09:54:50.962Z,0.17
2022-10-17T09:57:19.106Z,0.15
2022-10-17T09:59:48.025Z,0.17
2022-10-17T10:02:17.913Z,0.10
2022-10-17T10:05:04.238Z,0.20
2022-10-17T10:07:34.209Z,0.10
2022-10-17T10:10:02.855Z,0.10
2022-10-17T10:12:32.524Z,0.15
2022-10-17T10:15:00.721Z,0.20
2022-10-17T10:17:35.834Z,0.10
2022-10-17T10:20:05.388Z,0.10
2022-10-17T10:22:33.141Z,0.10
2022-10-17T10:25:13.875Z,0.10
2022-10-17T10:27:41.856Z,0.10
2022-10-17T10:30:17.786Z,0.20
2022-10-17T10:32:46.465Z,0.10
2022-10-17T10:35:20.575Z,0.20
2022-10-17T10:37:50.870Z,0.10
2022-10-17T10:40:19.223Z,0.10
2022-10-17T10:42:48.437Z,0.20
2022-10-17T10:45:29.298Z,0.20
2022-10-17T10:48:04.643Z,0.17
2022-10-17T10:50:34.843Z,0.10
2022-10-17T10:53:10.093Z,0.10
2022-10-17T10:55:39.595Z,0.10
2022-10-17T10:58:13.856Z,0.20
2022-10-17T11:00:41.587Z,0.10
2022-10-17T11:03:15.891Z,0.20
2022-10-17T11:05:47.176Z,0.10
2022-10-17T11:08:20.277Z,0.10
2022-10-17T11:10:53.887Z,0.10
2022-10-17T11:13:23.804Z,0.10
2022-10-17T11:15:54.658Z,0.20
2022-10-17T11:18:23.624Z,0.20
2022-10-17T11:20:57.840Z,0.10
2022-10-17T11:23:29.830Z,0.15
2022-10-17T11:25:59.862Z,0.10
2022-10-17T11:28:27.356Z,0.10
2022-10-17T11:31:02.349Z,0.20
2022-10-17T11:33:37.189Z,0.20
2022-10-17T11:36:30.617Z,0.10
2022-10-17T11:39:02.538Z,0.10
2022-10-17T11:41:33.442Z,0.10
2022-10-17T11:44:05.254Z,0.10
2022-10-17T11:46:35.865Z,0.10
2022-10-17T11:49:07.538Z,0.10
2022-10-17T11:54:32.005Z,0.10
2022-10-17T11:57:04.959Z,0.10
2022-10-17T11:59:45.265Z,0.20
2022-10-17T12:02:15.240Z,0.10
2022-10-17T12:04:49.972Z,0.20
2022-10-17T12:07:20.084Z,0.20
2022-10-17T12:09:53.443Z,0.20
2022-10-17T12:12:25.580Z,0.13
2022-10-17T12:14:53.586Z,0.17
2022-10-17T12:17:46.120Z,0.10
2022-10-17T12:20:33.286Z,0.10
2022-10-17T12:23:03.527Z,0.10
2022-10-17T12:25:33.807Z,0.10
2022-10-17T12:28:10.603Z,0.10
2022-10-17T12:30:38.431Z,0.10
2022-10-17T12:33:08.163Z,0.10
2022-10-17T12:35:36.924Z,0.10
2022-10-17T12:38:22.129Z,0.10
2022-10-17T12:41:04.356Z,0.10
2022-10-17T12:43:55.781Z,0.10
2022-10-17T12:46:42.789Z,0.10
2022-10-17T12:49:37.490Z,0.10
2022-10-17T12:52:29.551Z,0.10
2022-10-17T12:55:17.272Z,0.10
2022-10-17T12:57:49.430Z,0.10
2022-10-17T13:00:19.981Z,0.10
2022-10-17T13:02:49.034Z,0.10
2022-10-17T13:05:18.659Z,0.10
2022-10-17T13:07:46.783Z,0.10
2022-10-17T13:10:21.264Z,0.10
2022-10-17T13:12:50.484Z,0.13
2022-10-17T13:15:18.906Z,0.10
2022-10-17T13:17:46.572Z,0.10
2022-10-17T13:20:23.611Z,0.10
2022-10-17T13:22:53.194Z,0.10
2022-10-17T13:25:22.012Z,0.10
2022-10-17T13:27:51.348Z,0.20
2022-10-17T13:30:24.760Z,0.10
2022-10-17T13:32:54.308Z,0.10
2022-10-17T13:35:41.942Z,0.10
2022-10-17T13:38:14.285Z,0.10
2022-10-17T13:40:50.699Z,0.10
2022-10-17T13:43:20.799Z,0.10
2022-10-17T13:46:36.010Z,0.10
2022-10-17T13:49:11.470Z,0.10
2022-10-17T13:51:43.245Z,0.10
2022-10-17T13:54:18.472Z,0.10
2022-10-17T13:56:46.120Z,0.10
2022-10-17T13:59:20.613Z,0.10
2022-10-17T14:01:49.716Z,0.10
2022-10-17T14:04:20.205Z,0.10
2022-10-17T14:06:51.279Z,0.10
2022-10-17T14:09:22.100Z,0.10
2022-10-17T14:11:57.739Z,0.10
2022-10-17T14:14:27.381Z,0.10
2022-10-17T14:16:55.055Z,0.10
2022-10-17T14:19:25.609Z,0.10
2022-10-17T14:21:54.375Z,0.08
2022-10-17T14:24:29.703Z,0.20
2022-10-17T14:26:58.869Z,0.10
2022-10-17T14:29:28.494Z,0.10
2022-10-17T14:31:59.863Z,0.10
2022-10-17T14:34:29.934Z,0.10
2022-10-17T14:36:57.415Z,0.10
2022-10-17T14:39:25.748Z,0.10
2022-10-17T14:41:53.743Z,0.10
2022-10-17T14:44:22.736Z,0.10
2022-10-17T14:46:53.794Z,0.10
2022-10-17T14:49:27.211Z,0.10
2022-10-17T14:52:15.334Z,0.10
2022-10-17T14:54:46.451Z,0.10
2022-10-17T14:57:16.436Z,0.13
2022-10-17T14:59:59.387Z,0.10
2022-10-17T15:02:29.440Z,0.10
2022-10-17T15:04:57.264Z,0.10
2022-10-17T15:07:24.836Z,0.20
2022-10-17T15:09:53.149Z,0.10
2022-10-17T15:12:22.116Z,0.10
2022-10-17T15:14:50.616Z,0.10
2022-10-17T15:17:20.686Z,0.10
2022-10-17T15:19:50.585Z,0.10
2022-10-17T15:22:19.091Z,0.10
2022-10-17T15:24:46.864Z,0.10
2022-10-17T15:27:15.703Z,0.10
2022-10-17T15:29:43.217Z,0.10
2022-10-17T15:32:10.658Z,0.10
2022-10-17T15:34:38.371Z,0.10
2022-10-17T15:37:08.007Z,0.10
2022-10-17T15:39:35.410Z,0.10
2022-10-17T15:42:02.850Z,0.10
2022-10-17T15:44:30.403Z,0.10
2022-10-17T15:46:58.171Z,0.10
2022-10-17T15:49:25.659Z,0.10
2022-10-17T15:51:55.387Z,0.20
2022-10-17T15:54:24.432Z,0.10
2022-10-17T15:56:54.383Z,0.20
2022-10-17T15:59:23.815Z,0.20
2022-10-17T16:01:51.313Z,0.10
2022-10-17T16:04:19.012Z,0.20
2022-10-17T16:06:46.499Z,0.10
2022-10-17T16:09:13.932Z,0.20
2022-10-17T16:11:44.084Z,0.20
2022-10-17T16:14:12.453Z,0.20
2022-10-17T16:16:39.984Z,0.10
2022-10-17T16:19:07.484Z,0.20
2022-10-17T16:21:36.749Z,0.10
2022-10-17T16:24:04.324Z,0.20
2022-10-17T16:26:31.981Z,0.28
2022-10-17T16:29:02.968Z,0.30
2022-10-17T16:31:31.883Z,0.20
2022-10-17T16:34:00.204Z,0.20
2022-10-17T16:36:27.810Z,0.20
2022-10-17T16:38:55.485Z,0.20
2022-10-17T16:41:23.912Z,0.20
2022-10-17T16:43:52.442Z,0.30
2022-10-17T16:46:21.814Z,0.10
2022-10-17T16:48:49.570Z,0.20
2022-10-17T16:51:18.439Z,0.20
2022-10-17T16:53:46.206Z,0.20
2022-10-17T16:56:16.704Z,0.20
2022-10-17T16:58:44.318Z,0.20
2022-10-17T17:01:12.967Z,0.20
2022-10-17T17:03:43.014Z,0.20
2022-10-17T17:06:13.322Z,0.20
2022-10-17T17:08:40.935Z,0.20
2022-10-17T17:11:08.903Z,0.20
2022-10-17T17:13:36.836Z,0.20
2022-10-17T17:16:05.022Z,0.20
2022-10-17T17:18:32.452Z,0.20
2022-10-17T17:21:02.166Z,0.15
2022-10-17T17:23:30.108Z,0.20
2022-10-17T17:25:58.118Z,0.20
2022-10-17T17:28:26.401Z,0.20
2022-10-17T17:30:54.001Z,0.20
2022-10-17T17:33:21.624Z,0.20
2022-10-17T17:35:49.093Z,0.22
2022-10-17T17:38:18.024Z,0.20
2022-10-17T17:40:50.514Z,0.20
2022-10-17T17:43:19.061Z,0.20
2022-10-17T17:45:46.616Z,0.25
2022-10-17T17:48:14.424Z,0.20
2022-10-17T17:50:42.586Z,0.30
2022-10-17T17:53:10.579Z,0.30
2022-10-17T17:55:39.538Z,0.20
2022-10-17T17:58:08.181Z,0.20
2022-10-17T18:00:36.228Z,0.20
2022-10-17T18:03:04.043Z,0.20
2022-10-17T18:05:31.617Z,0.20
2022-10-17T18:07:59.213Z,0.20
2022-10-17T18:10:28.371Z,0.20
2022-10-17T18:12:57.215Z,0.20
2022-10-17T18:15:24.819Z,0.30
2022-10-17T18:17:52.292Z,0.20
2022-10-17T18:20:19.795Z,0.20
2022-10-17T18:22:47.283Z,0.20
2022-10-17T18:25:14.795Z,0.20
2022-10-17T18:27:42.444Z,0.20
2022-10-17T18:30:11.730Z,0.30
2022-10-17T18:32:40.602Z,0.20
2022-10-17T18:35:08.373Z,0.20
2022-10-17T18:37:36.008Z,0.20
2022-10-17T18:40:03.793Z,0.20
2022-10-17T18:42:31.575Z,0.20
2022-10-17T18:44:59.464Z,0.20
2022-10-17T18:47:29.521Z,0.20
2022-10-17T18:49:57.740Z,0.30
2022-10-17T18:52:25.564Z,0.20
2022-10-17T18:54:53.046Z,0.30
2022-10-17T18:57:23.830Z,0.20
2022-10-17T18:59:53.580Z,0.20
2022-10-17T19:02:21.120Z,0.25
2022-10-17T19:07:20.012Z,0.20
2022-10-17T19:09:49.222Z,0.20
2022-10-17T19:12:16.793Z,0.30
2022-10-17T19:14:44.271Z,0.20
2022-10-17T19:17:11.807Z,0.20
2022-10-17T19:19:39.499Z,0.30
2022-10-17T19:22:09.507Z,0.30
2022-10-17T19:24:37.029Z,0.30
2022-10-17T19:27:06.783Z,0.20
2022-10-17T19:29:34.253Z,0.20
2022-10-17T19:32:26.099Z,0.20
2022-10-17T19:34:53.575Z,0.30
2022-10-17T19:37:22.516Z,0.30
2022-10-17T19:39:50.028Z,0.30
2022-10-17T19:42:17.640Z,0.20
2022-10-17T19:44:45.135Z,0.30
2022-10-17T19:47:12.600Z,0.20
2022-10-17T19:49:40.183Z,0.20
2022-10-17T19:52:07.687Z,0.20
2022-10-17T19:54:36.679Z,0.20
2022-10-17T19:57:08.072Z,0.30
2022-10-17T19:59:37.883Z,0.20
2022-10-17T20:02:05.387Z,0.30
2022-10-17T20:04:32.879Z,0.28
2022-10-17T20:07:00.699Z,0.30
2022-10-17T20:09:28.219Z,0.30
2022-10-17T20:11:57.047Z,0.30
2022-10-17T20:14:24.694Z,0.20
2022-10-17T20:16:52.680Z,0.20
2022-10-17T20:19:20.390Z,0.25
2022-10-17T20:21:47.799Z,0.20
2022-10-17T20:24:16.598Z,0.30
2022-10-17T20:26:44.732Z,0.20
2022-10-17T20:29:15.211Z,0.30
2022-10-17T20:31:43.620Z,0.30
2022-10-17T20:34:12.647Z,0.20
2022-10-17T20:36:40.084Z,0.30
2022-10-17T20:39:07.865Z,0.43
2022-10-17T20:41:35.676Z,0.30
2022-10-17T20:44:03.218Z,0.20
2022-10-17T20:46:37.283Z,0.20
2022-10-17T20:49:05.831Z,0.40
2022-10-17T20:51:33.544Z,0.30
2022-10-17T20:54:01.020Z,0.30
2022-10-17T20:56:29.774Z,0.30
2022-10-17T20:58:58.205Z,0.40
2022-10-17T21:01:30.473Z,0.30
2022-10-17T21:04:10.655Z,0.30
2022-10-17T21:06:48.046Z,0.30
2022-10-17T21:09:16.137Z,0.30
2022-10-17T21:11:44.089Z,0.30
2022-10-17T21:14:12.052Z,0.30
2022-10-17T21:16:41.187Z,0.30
2022-10-17T21:19:10.727Z,0.30
2022-10-17T21:21:39.432Z,0.30
2022-10-17T21:24:09.012Z,0.30
2022-10-17T21:26:37.528Z,0.30
2022-10-17T21:29:05.887Z,0.30
2022-10-17T21:31:34.190Z,0.30
2022-10-17T21:34:05.623Z,0.25
2022-10-17T21:36:34.470Z,0.32
2022-10-17T21:39:02.280Z,0.30
2022-10-17T21:41:30.783Z,0.30
2022-10-17T21:43:59.088Z,0.20
2022-10-17T21:46:26.943Z,0.30
2022-10-17T21:48:54.652Z,0.30
2022-10-17T21:51:22.795Z,0.40
2022-10-17T21:53:52.052Z,0.22
2022-10-17T21:56:20.660Z,0.30
2022-10-17T21:58:48.547Z,0.30
2022-10-17T22:01:17.085Z,0.30
2022-10-17T22:03:46.775Z,0.30
2022-10-17T22:09:04.396Z,0.30
2022-10-17T22:11:33.079Z,0.38
2022-10-17T22:14:01.438Z,0.30
2022-10-17T22:16:29.157Z,0.30
2022-10-17T22:19:00.518Z,0.32
2022-10-17T22:21:30.808Z,0.30
2022-10-17T22:23:59.162Z,0.30
2022-10-17T22:26:28.586Z,0.30
2022-10-17T22:28:56.384Z,0.35
2022-10-17T22:31:23.901Z,0.40
2022-10-17T22:33:51.375Z,0.30
2022-10-17T22:36:18.856Z,0.30
2022-10-17T22:38:46.386Z,0.30
2022-10-17T22:41:14.108Z,0.30
2022-10-17T22:43:43.001Z,0.32
2022-10-17T22:46:12.832Z,0.35
2022-10-17T22:48:40.695Z,0.30
2022-10-17T22:51:08.600Z,0.30
2022-10-17T22:53:37.386Z,0.30
2022-10-17T22:56:06.523Z,0.40
2022-10-17T22:58:34.976Z,0.30
2022-10-17T23:01:04.458Z,0.30
2022-10-17T23:03:32.904Z,0.30
2022-10-17T23:06:00.772Z,0.30
2022-10-17T23:08:28.642Z,0.40
2022-10-17T23:10:56.159Z,0.30
2022-10-17T23:13:23.628Z,0.38
2022-10-17T23:15:52.465Z,0.40
2022-10-17T23:18:21.754Z,0.30
2022-10-17T23:20:49.251Z,0.30
2022-10-17T23:23:17.248Z,0.38
2022-10-17T23:25:44.843Z,0.40
2022-10-17T23:28:12.490Z,0.30
2022-10-17T23:30:40.244Z,0.30
2022-10-17T23:33:07.833Z,0.30
2022-10-17T23:35:36.912Z,0.40
2022-10-17T23:38:04.481Z,0.30
2022-10-17T23:40:31.945Z,0.30
2022-10-17T23:42:59.397Z,0.30
2022-10-17T23:45:26.986Z,0.30
2022-10-17T23:47:54.440Z,0.30
2022-10-17T23:50:23.642Z,0.32
2022-10-17T23:52:52.513Z,0.30
2022-10-17T23:55:19.962Z,0.30
2022-10-17T23:57:47.398Z,0.30
